createdAt,value
2023-02-15T00:01:15.439Z,33.23
2023-02-15T00:03:49.107Z,36.83
2023-02-15T00:06:19.000Z,37.60
2023-02-15T00:08:55.107Z,35.53
2023-02-15T00:11:40.819Z,36.73
2023-02-15T00:14:16.236Z,32.23
2023-02-15T00:16:48.036Z,36.80
2023-02-15T00:19:24.227Z,37.63
2023-02-15T00:21:57.209Z,38.73
2023-02-15T00:24:31.159Z,33.53
2023-02-15T00:27:05.134Z,36.07
2023-02-15T00:29:31.882Z,36.57
2023-02-15T00:32:05.278Z,36.97
2023-02-15T00:34:32.082Z,36.93
2023-02-15T00:37:05.125Z,36.67
2023-02-15T00:39:34.366Z,39.20
2023-02-15T00:42:07.305Z,35.70
2023-02-15T00:44:33.964Z,39.57
2023-02-15T00:47:08.281Z,40.57
2023-02-15T00:49:35.005Z,35.80
2023-02-15T00:52:08.145Z,36.97
2023-02-15T00:54:35.866Z,36.87
2023-02-15T00:57:23.142Z,37.70
2023-02-15T00:59:50.724Z,32.53
2023-02-15T01:02:38.158Z,34.60
2023-02-15T01:05:13.630Z,34.20
2023-02-15T01:07:47.298Z,32.27
2023-02-15T01:10:24.975Z,34.47
2023-02-15T01:12:55.535Z,32.70
2023-02-15T01:15:29.116Z,33.47
2023-02-15T01:17:56.338Z,36.13
2023-02-15T01:20:35.185Z,35.13
2023-02-15T01:23:01.934Z,37.00
2023-02-15T01:25:38.285Z,32.20
2023-02-15T01:28:05.512Z,31.93
2023-02-15T01:30:40.323Z,32.83
2023-02-15T01:33:07.254Z,33.17
2023-02-15T01:35:34.296Z,34.17
2023-02-15T01:38:07.251Z,32.47
2023-02-15T01:40:33.787Z,29.50
2023-02-15T01:43:07.223Z,27.07
2023-02-15T01:45:34.127Z,30.97
2023-02-15T01:48:37.162Z,29.83
2023-02-15T01:51:04.548Z,29.83
2023-02-15T01:53:49.177Z,29.10
2023-02-15T01:56:30.266Z,31.53
2023-02-15T01:59:16.184Z,30.87
2023-02-15T02:01:43.321Z,29.93
2023-02-15T02:04:39.147Z,28.40
2023-02-15T02:07:18.278Z,30.30
2023-02-15T02:09:53.225Z,28.17
2023-02-15T02:12:29.208Z,31.77
2023-02-15T02:15:03.287Z,27.27
2023-02-15T02:17:59.936Z,28.60
2023-02-15T02:20:38.146Z,28.60
2023-02-15T02:23:33.199Z,26.67
2023-02-15T02:26:19.459Z,30.40
2023-02-15T02:29:26.869Z,26.97
2023-02-15T02:32:34.201Z,29.10
2023-02-15T02:35:25.295Z,27.40
2023-02-15T02:38:24.572Z,28.10
2023-02-15T02:41:15.624Z,27.07
2023-02-15T02:43:55.811Z,31.33
2023-02-15T02:46:36.336Z,26.13
2023-02-15T02:49:35.311Z,27.27
2023-02-15T02:52:04.923Z,28.37
2023-02-15T02:54:40.216Z,26.03
2023-02-15T02:57:23.156Z,27.90
2023-02-15T03:00:03.902Z,24.70
2023-02-15T03:02:45.216Z,28.60
2023-02-15T03:05:27.125Z,26.87
2023-02-15T03:08:02.193Z,25.13
2023-02-15T03:10:32.956Z,28.27
2023-02-15T03:13:06.155Z,25.97
2023-02-15T03:19:06.192Z,28.77
2023-02-15T03:21:45.271Z,29.00
2023-02-15T03:24:16.462Z,25.77
2023-02-15T03:26:53.237Z,27.10
2023-02-15T03:29:23.189Z,25.93
2023-02-15T03:32:01.373Z,28.10
2023-02-15T03:34:28.422Z,24.10
2023-02-15T03:37:27.229Z,25.63
2023-02-15T03:40:29.330Z,25.00
2023-02-15T03:43:09.884Z,25.50
2023-02-15T03:45:45.214Z,25.30
2023-02-15T03:48:21.288Z,27.33
2023-02-15T03:51:14.748Z,22.93
2023-02-15T03:53:43.211Z,22.60
2023-02-15T03:56:20.951Z,24.73
2023-02-15T03:59:13.267Z,26.07
2023-02-15T04:02:03.372Z,25.07
2023-02-15T04:04:37.257Z,23.70
2023-02-15T04:07:06.613Z,26.87
2023-02-15T04:09:58.175Z,27.93
2023-02-15T04:12:25.118Z,25.07
2023-02-15T04:15:17.265Z,26.27
2023-02-15T04:17:50.241Z,26.23
2023-02-15T04:20:42.178Z,24.97
2023-02-15T04:23:27.567Z,25.33
2023-02-15T04:26:04.998Z,22.67
2023-02-15T04:28:31.971Z,24.93
2023-02-15T04:31:08.389Z,25.23
2023-02-15T04:33:43.184Z,27.23
2023-02-15T04:36:16.147Z,24.53
2023-02-15T04:38:42.698Z,26.00
2023-02-15T04:41:10.253Z,25.47
2023-02-15T04:43:43.188Z,25.33
2023-02-15T04:46:16.294Z,26.60
2023-02-15T04:48:43.111Z,24.60
2023-02-15T04:51:20.326Z,24.70
2023-02-15T04:53:46.969Z,26.70
2023-02-15T04:56:23.212Z,27.50
2023-02-15T04:58:56.215Z,24.43
2023-02-15T05:01:28.298Z,25.53
2023-02-15T05:04:01.241Z,26.67
2023-02-15T05:06:30.940Z,26.73
2023-02-15T05:09:07.266Z,25.30
2023-02-15T05:11:37.459Z,24.30
2023-02-15T05:14:11.264Z,24.43
2023-02-15T05:16:38.035Z,26.27
2023-02-15T05:19:11.233Z,27.60
2023-02-15T05:21:38.047Z,23.87
2023-02-15T05:24:31.206Z,24.97
2023-02-15T05:27:16.130Z,23.53
2023-02-15T05:29:49.297Z,25.03
2023-02-15T05:32:16.696Z,24.63
2023-02-15T05:34:43.490Z,24.43
2023-02-15T05:37:16.293Z,24.93
2023-02-15T05:39:42.904Z,25.23
2023-02-15T05:42:16.276Z,26.93
2023-02-15T05:44:43.160Z,22.57
2023-02-15T05:47:23.280Z,25.70
2023-02-15T05:49:49.900Z,26.07
2023-02-15T05:52:23.280Z,25.70
2023-02-15T05:54:49.943Z,27.13
2023-02-15T05:57:30.316Z,23.83
2023-02-15T06:00:05.450Z,24.47
2023-02-15T06:02:44.743Z,24.00
2023-02-15T06:05:18.456Z,25.00
2023-02-15T06:07:52.268Z,25.47
2023-02-15T06:10:19.271Z,24.87
2023-02-15T06:12:46.183Z,22.83
2023-02-15T06:15:19.331Z,24.23
2023-02-15T06:17:46.014Z,23.67
2023-02-15T06:20:24.964Z,24.30
2023-02-15T06:22:58.325Z,24.93
2023-02-15T06:25:40.021Z,25.43
2023-02-15T06:28:07.306Z,24.67
2023-02-15T06:30:40.321Z,24.70
2023-02-15T06:33:14.237Z,24.20
2023-02-15T06:35:54.337Z,24.27
2023-02-15T06:38:21.172Z,23.07
2023-02-15T06:40:54.242Z,23.83
2023-02-15T06:43:30.379Z,28.30
2023-02-15T06:45:57.156Z,26.47
2023-02-15T06:48:23.842Z,25.43
2023-02-15T06:50:57.265Z,24.70
2023-02-15T06:53:23.813Z,24.23
2023-02-15T06:56:16.258Z,23.70
2023-02-15T06:58:57.228Z,28.63
2023-02-15T07:01:24.370Z,25.50
2023-02-15T07:03:57.342Z,27.53
2023-02-15T07:06:30.593Z,26.90
2023-02-15T07:09:04.287Z,26.90
2023-02-15T07:12:10.324Z,26.00
2023-02-15T07:14:37.045Z,32.60
2023-02-15T07:17:11.772Z,27.33
2023-02-15T07:19:51.290Z,27.67
2023-02-15T07:22:20.190Z,31.97
2023-02-15T07:24:53.378Z,30.93
2023-02-15T07:27:20.276Z,30.67
2023-02-15T07:29:53.279Z,31.90
2023-02-15T07:32:20.154Z,33.63
2023-02-15T07:34:56.275Z,38.13
2023-02-15T07:37:23.048Z,35.43
2023-02-15T07:39:56.261Z,34.23
2023-02-15T07:42:29.370Z,36.77
2023-02-15T07:45:02.321Z,37.67
2023-02-15T07:47:38.327Z,39.10
2023-02-15T07:50:08.293Z,40.13
2023-02-15T07:52:41.277Z,37.80
2023-02-15T07:55:09.931Z,37.37
2023-02-15T07:57:43.206Z,42.13
2023-02-15T08:00:17.936Z,40.97
2023-02-15T08:03:20.436Z,39.77
2023-02-15T08:05:47.844Z,43.57
2023-02-15T08:08:37.295Z,38.10
2023-02-15T08:11:38.524Z,37.67
2023-02-15T08:14:24.490Z,37.27
2023-02-15T08:17:06.286Z,40.07
2023-02-15T08:19:40.562Z,36.60
2023-02-15T08:22:17.267Z,36.83
2023-02-15T08:24:50.404Z,43.27
2023-02-15T08:27:17.080Z,41.10
2023-02-15T08:29:50.354Z,41.30
2023-02-15T08:32:19.706Z,41.57
2023-02-15T08:35:00.425Z,38.87
2023-02-15T08:37:27.378Z,36.90
2023-02-15T08:40:00.323Z,37.97
2023-02-15T08:42:27.093Z,40.57
2023-02-15T08:45:03.411Z,38.33
2023-02-15T08:47:30.118Z,43.20
2023-02-15T08:50:03.417Z,40.40
2023-02-15T08:52:30.345Z,37.57
2023-02-15T08:55:06.375Z,34.60
2023-02-15T08:57:39.446Z,36.90
2023-02-15T09:00:13.312Z,40.17
2023-02-15T09:02:50.369Z,41.90
2023-02-15T09:05:20.434Z,35.83
2023-02-15T09:08:08.551Z,35.97
2023-02-15T09:10:35.203Z,36.37
2023-02-15T09:13:08.439Z,38.67
2023-02-15T09:15:35.136Z,40.67
2023-02-15T09:18:13.308Z,36.27
2023-02-15T09:20:39.918Z,35.30
2023-02-15T09:23:25.547Z,34.57
2023-02-15T09:26:03.496Z,38.77
2023-02-15T09:28:43.437Z,37.07
2023-02-15T09:33:56.366Z,37.83
2023-02-15T09:36:34.486Z,33.37
2023-02-15T09:39:32.357Z,38.00
2023-02-15T09:42:34.635Z,38.30
2023-02-15T09:45:18.802Z,33.70
2023-02-15T09:48:03.956Z,35.20
2023-02-15T09:51:11.445Z,34.23
2023-02-15T09:54:20.050Z,35.63
2023-02-15T09:57:01.350Z,31.67
2023-02-15T09:59:50.511Z,31.92
2023-02-15T10:02:40.400Z,34.38
2023-02-15T10:05:27.199Z,33.90
2023-02-15T10:08:15.343Z,32.05
2023-02-15T10:11:23.681Z,33.45
2023-02-15T10:14:25.616Z,32.38
2023-02-15T10:17:36.388Z,34.03
2023-02-15T10:20:32.174Z,34.08
2023-02-15T10:23:30.514Z,34.90
2023-02-15T10:26:15.115Z,31.45
2023-02-15T10:29:01.443Z,30.38
2023-02-15T10:31:33.457Z,31.02
2023-02-15T10:34:19.431Z,29.23
2023-02-15T10:37:05.940Z,31.52
2023-02-15T10:40:00.395Z,35.45
2023-02-15T10:42:52.331Z,35.03
2023-02-15T10:45:54.466Z,34.83
2023-02-15T10:48:30.204Z,33.65
2023-02-15T10:51:05.391Z,30.65
2023-02-15T10:54:04.676Z,34.45
2023-02-15T10:56:49.734Z,31.60
2023-02-15T10:59:31.606Z,30.35
2023-02-15T11:02:31.947Z,31.80
2023-02-15T11:05:30.660Z,30.25
2023-02-15T11:08:00.818Z,36.05
2023-02-15T11:10:47.947Z,29.20
2023-02-15T11:13:20.271Z,32.60
2023-02-15T11:19:08.419Z,29.33
2023-02-15T11:21:51.620Z,32.40
2023-02-15T11:24:30.373Z,28.00
2023-02-15T11:27:13.818Z,29.10
2023-02-15T11:29:59.501Z,29.15
2023-02-15T11:32:42.157Z,29.50
2023-02-15T11:35:28.809Z,28.13
2023-02-15T11:38:13.460Z,27.33
2023-02-15T11:40:53.001Z,27.35
2023-02-15T11:43:51.389Z,31.30
2023-02-15T11:46:26.593Z,28.63
2023-02-15T11:48:59.502Z,30.25
2023-02-15T11:51:45.383Z,30.55
2023-02-15T11:54:12.329Z,30.80
2023-02-15T11:56:45.458Z,27.27
2023-02-15T11:59:30.793Z,32.55
2023-02-15T12:04:56.459Z,28.90
2023-02-15T12:07:31.921Z,28.58
2023-02-15T12:10:22.317Z,28.05
2023-02-15T12:12:55.322Z,26.42
2023-02-15T12:15:45.401Z,27.75
2023-02-15T12:18:52.398Z,26.00
2023-02-15T12:21:40.694Z,27.98
2023-02-15T12:24:30.409Z,25.58
2023-02-15T12:27:08.392Z,28.50
2023-02-15T12:29:42.341Z,24.80
2023-02-15T12:32:24.481Z,27.38
2023-02-15T12:35:07.158Z,28.25
2023-02-15T12:37:35.780Z,25.25
2023-02-15T12:40:31.910Z,26.40
2023-02-15T12:42:58.881Z,25.38
2023-02-15T12:45:44.546Z,26.02
2023-02-15T12:48:18.731Z,27.27
2023-02-15T12:50:55.017Z,28.95
2023-02-15T12:53:26.189Z,24.23
2023-02-15T12:56:23.919Z,26.77
2023-02-15T12:59:12.505Z,24.70
2023-02-15T13:01:47.631Z,25.98
2023-02-15T13:04:32.436Z,25.58
2023-02-15T13:07:10.487Z,25.70
2023-02-15T13:09:40.798Z,27.90
2023-02-15T13:12:25.461Z,25.88
2023-02-15T13:15:00.561Z,24.88
2023-02-15T13:17:44.649Z,26.13
2023-02-15T13:20:22.128Z,25.00
2023-02-15T13:22:58.492Z,26.15
2023-02-15T13:25:44.063Z,24.83
2023-02-15T13:28:24.272Z,26.10
2023-02-15T13:30:59.385Z,24.60
2023-02-15T13:33:40.549Z,27.23
2023-02-15T13:36:45.575Z,26.00
2023-02-15T13:39:34.443Z,28.95
2023-02-15T13:42:28.415Z,26.30
2023-02-15T13:45:13.687Z,27.38
2023-02-15T13:47:59.322Z,26.25
2023-02-15T13:50:41.595Z,26.52
2023-02-15T13:53:08.151Z,28.13
2023-02-15T13:56:15.492Z,26.50
2023-02-15T13:59:23.734Z,26.67
2023-02-15T14:02:40.887Z,27.95
2023-02-15T14:06:01.573Z,27.17
2023-02-15T14:09:08.503Z,27.30
2023-02-15T14:11:59.536Z,27.10
2023-02-15T14:14:38.458Z,25.88
2023-02-15T14:17:30.798Z,25.45
2023-02-15T14:20:29.804Z,23.17
2023-02-15T14:23:35.513Z,26.73
2023-02-15T14:26:11.205Z,24.55
2023-02-15T14:28:57.436Z,25.55
2023-02-15T14:31:40.161Z,26.42
2023-02-15T14:34:25.384Z,26.52
2023-02-15T14:37:00.654Z,26.90
2023-02-15T14:40:03.529Z,22.85
2023-02-15T14:43:09.405Z,27.20
2023-02-15T14:46:09.587Z,25.95
2023-02-15T14:49:25.222Z,23.23
2023-02-15T14:51:58.562Z,23.52
2023-02-15T14:54:25.044Z,22.55
2023-02-15T14:57:10.666Z,27.65
2023-02-15T15:00:07.977Z,25.08
2023-02-15T15:02:59.722Z,23.90
2023-02-15T15:05:53.506Z,25.67
2023-02-15T15:08:48.727Z,24.42
2023-02-15T15:11:44.655Z,28.20
2023-02-15T15:14:32.494Z,25.40
2023-02-15T15:17:11.518Z,23.80
2023-02-15T15:19:53.636Z,28.05
2023-02-15T15:22:32.642Z,28.48
2023-02-15T15:25:16.448Z,25.40
2023-02-15T15:28:01.540Z,26.25
2023-02-15T15:30:37.606Z,24.20
2023-02-15T15:33:33.520Z,25.45
2023-02-15T15:36:28.804Z,24.17
2023-02-15T15:40:02.565Z,25.00
2023-02-15T15:42:50.879Z,26.58
2023-02-15T15:45:54.541Z,26.15
2023-02-15T15:48:54.618Z,27.58
2023-02-15T15:51:51.487Z,24.58
2023-02-15T15:54:28.566Z,25.80
2023-02-15T15:57:06.570Z,23.80
2023-02-15T15:59:53.606Z,29.63
2023-02-15T16:02:41.638Z,26.08
2023-02-15T16:05:17.687Z,25.42
2023-02-15T16:07:50.591Z,28.55
2023-02-15T16:10:30.457Z,26.05
2023-02-15T16:13:03.603Z,24.02
2023-02-15T16:15:50.878Z,27.33
2023-02-15T16:18:26.252Z,27.88
2023-02-15T16:21:09.203Z,24.50
2023-02-15T16:23:42.574Z,27.30
2023-02-15T16:26:35.224Z,32.05
2023-02-15T16:29:02.664Z,27.85
2023-02-15T16:31:44.629Z,29.85
2023-02-15T16:34:24.604Z,29.10
2023-02-15T16:37:17.245Z,31.85
2023-02-15T16:39:55.556Z,26.15
2023-02-15T16:42:23.006Z,25.10
2023-02-15T16:45:02.569Z,30.30
2023-02-15T16:47:32.668Z,27.27
2023-02-15T16:50:10.661Z,28.50
2023-02-15T16:52:37.381Z,25.52
2023-02-15T16:55:16.639Z,25.10
2023-02-15T16:57:44.068Z,26.08
2023-02-15T17:00:35.734Z,26.25
2023-02-15T17:03:06.867Z,27.20
2023-02-15T17:05:52.954Z,27.77
2023-02-15T17:08:34.450Z,26.20
2023-02-15T17:11:26.524Z,25.90
2023-02-15T17:14:05.904Z,27.90
2023-02-15T17:16:51.193Z,25.77
2023-02-15T17:19:24.542Z,26.25
2023-02-15T17:22:01.563Z,26.60
2023-02-15T17:24:43.665Z,25.27
2023-02-15T17:27:22.633Z,26.85
2023-02-15T17:30:03.870Z,26.45
2023-02-15T17:32:34.250Z,25.15
2023-02-15T17:35:15.800Z,24.40
2023-02-15T17:37:56.660Z,29.50
2023-02-15T17:40:35.677Z,30.17
2023-02-15T17:43:08.687Z,32.45
2023-02-15T17:45:47.697Z,29.52
2023-02-15T17:48:52.701Z,26.65
2023-02-15T17:51:27.590Z,26.77
2023-02-15T17:54:22.706Z,27.98
2023-02-15T17:57:02.616Z,25.40
2023-02-15T17:59:35.726Z,29.05
2023-02-15T18:02:36.552Z,30.65
2023-02-15T18:05:29.617Z,27.52
2023-02-15T18:08:21.623Z,24.92
2023-02-15T18:11:22.617Z,26.67
2023-02-15T18:13:49.466Z,26.80
2023-02-15T18:16:50.623Z,25.48
2023-02-15T18:19:33.583Z,26.48
2023-02-15T18:22:09.677Z,24.30
2023-02-15T18:24:38.907Z,25.00
2023-02-15T18:27:12.676Z,24.65
2023-02-15T18:29:46.642Z,25.58
2023-02-15T18:32:25.595Z,24.83
2023-02-15T18:34:55.426Z,28.58
2023-02-15T18:37:29.639Z,26.52
2023-02-15T18:40:02.752Z,26.10
2023-02-15T18:42:39.711Z,27.08
2023-02-15T18:45:26.594Z,24.77
2023-02-15T18:47:54.598Z,28.02
2023-02-15T18:50:34.869Z,29.17
2023-02-15T18:53:04.162Z,25.52
2023-02-15T18:55:41.994Z,25.52
2023-02-15T18:58:23.711Z,25.35
2023-02-15T19:01:06.878Z,30.05
2023-02-15T19:03:33.723Z,28.90
2023-02-15T19:06:10.610Z,25.33
2023-02-15T19:08:39.493Z,29.95
2023-02-15T19:11:37.062Z,30.77
2023-02-15T19:14:03.861Z,27.40
2023-02-15T19:16:44.907Z,28.63
2023-02-15T19:19:11.533Z,29.95
2023-02-15T19:21:46.689Z,28.83
2023-02-15T19:24:28.887Z,30.20
2023-02-15T19:27:04.638Z,30.92
2023-02-15T19:29:31.547Z,25.80
2023-02-15T19:32:07.497Z,29.55
2023-02-15T19:34:50.751Z,29.52
2023-02-15T19:37:42.550Z,29.88
2023-02-15T19:40:27.769Z,27.15
2023-02-15T19:42:54.913Z,26.67
2023-02-15T19:45:32.102Z,27.55
2023-02-15T19:48:08.769Z,30.75
2023-02-15T19:50:45.649Z,27.75
2023-02-15T19:53:23.075Z,32.10
2023-02-15T19:56:06.676Z,27.83
2023-02-15T19:58:39.900Z,28.30
2023-02-15T20:01:22.840Z,31.92
2023-02-15T20:03:53.517Z,25.30
2023-02-15T20:06:56.663Z,29.45
2023-02-15T20:09:26.433Z,26.58
2023-02-15T20:12:00.708Z,28.02
2023-02-15T20:14:33.638Z,28.60
2023-02-15T20:17:10.694Z,29.38
2023-02-15T20:19:45.655Z,32.33
2023-02-15T20:22:30.806Z,27.70
2023-02-15T20:25:26.859Z,26.75
2023-02-15T20:28:00.731Z,31.30
2023-02-15T20:30:32.614Z,29.25
2023-02-15T20:33:05.629Z,30.58
2023-02-15T20:35:43.646Z,29.73
2023-02-15T20:38:38.132Z,31.55
2023-02-15T20:41:43.619Z,29.30
2023-02-15T20:44:28.807Z,28.55
2023-02-15T20:46:58.062Z,31.95
2023-02-15T20:49:32.678Z,29.35
2023-02-15T20:52:01.354Z,32.00
2023-02-15T20:54:39.709Z,30.50
2023-02-15T20:57:07.185Z,28.15
2023-02-15T20:59:47.718Z,27.38
2023-02-15T21:05:39.769Z,32.70
2023-02-15T21:08:14.532Z,31.48
2023-02-15T21:10:51.659Z,29.80
2023-02-15T21:13:27.342Z,30.60
2023-02-15T21:16:02.858Z,30.00
2023-02-15T21:18:33.482Z,32.08
2023-02-15T21:21:12.772Z,30.30
2023-02-15T21:23:45.486Z,30.42
2023-02-15T21:26:23.778Z,37.13
2023-02-15T21:28:50.958Z,33.45
2023-02-15T21:31:33.940Z,31.35
2023-02-15T21:34:08.877Z,31.52
2023-02-15T21:36:35.830Z,30.13
2023-02-15T21:39:09.783Z,32.97
2023-02-15T21:41:55.585Z,33.50
2023-02-15T21:44:50.790Z,33.85
2023-02-15T21:47:55.855Z,31.67
2023-02-15T21:50:53.824Z,31.23
2023-02-15T21:53:27.519Z,30.05
2023-02-15T21:56:06.010Z,28.25
2023-02-15T21:58:36.877Z,32.30
2023-02-15T22:01:10.790Z,33.70
2023-02-15T22:03:44.868Z,32.88
2023-02-15T22:06:37.615Z,32.50
2023-02-15T22:09:25.778Z,33.67
2023-02-15T22:12:03.860Z,33.30
2023-02-15T22:14:38.116Z,32.25
2023-02-15T22:17:22.687Z,33.10
2023-02-15T22:19:50.128Z,38.28
2023-02-15T22:22:23.701Z,33.08
2023-02-15T22:25:08.723Z,31.52
2023-02-15T22:27:45.699Z,35.60
2023-02-15T22:30:26.554Z,35.05
2023-02-15T22:33:01.748Z,33.42
2023-02-15T22:35:44.831Z,36.72
2023-02-15T22:38:17.803Z,32.92
2023-02-15T22:40:56.360Z,32.83
2023-02-15T22:43:37.719Z,33.75
2023-02-15T22:46:20.211Z,35.05
2023-02-15T22:48:59.036Z,34.88
2023-02-15T22:51:29.709Z,33.47
2023-02-15T22:54:05.766Z,34.58
2023-02-15T22:56:43.462Z,37.60
2023-02-15T22:59:38.837Z,36.58
2023-02-15T23:02:20.581Z,37.15
2023-02-15T23:04:53.845Z,32.88
2023-02-15T23:07:27.764Z,35.83
2023-02-15T23:10:06.685Z,35.47
2023-02-15T23:12:53.605Z,34.45
2023-02-15T23:15:26.935Z,32.70
2023-02-15T23:17:59.706Z,34.35
2023-02-15T23:20:26.657Z,35.42
2023-02-15T23:22:59.808Z,37.75
2023-02-15T23:25:55.149Z,36.97
2023-02-15T23:28:33.784Z,36.97
2023-02-15T23:31:09.669Z,35.92
2023-02-15T23:33:36.469Z,34.03
2023-02-15T23:36:09.777Z,37.85
2023-02-15T23:38:42.760Z,35.47
2023-02-15T23:41:27.044Z,35.83
2023-02-15T23:44:06.773Z,33.15
2023-02-15T23:46:42.888Z,34.17
2023-02-15T23:49:25.915Z,38.58
2023-02-15T23:52:00.837Z,37.58
2023-02-15T23:54:27.553Z,35.92
2023-02-15T23:57:09.790Z,41.28
2023-02-15T23:59:44.818Z,38.25
